Time;durP1;ratioP1;P1;durP2;ratioP2;P2;SDS_P1;SDS_P2;PMS_P1;PMS_P2;Temp;Humidity;BMP_temperature;BMP_pressure;BME280_temperature;BME280_humidity;BME280_pressure;Samples;Min_cycle;Max_cycle;Signal;HPM_P1;HPM_P2
2023/12/19 00:00:39;;;;;;;41.53;32.47;;;;;;;;;;5014048;28;20497;-40
2023/12/19 00:03:07;;;;;;;36.90;31.30;;;;;;;;;;5013900;28;20448;-40
2023/12/19 00:05:34;;;;;;;54.97;35.57;;;;;;;;;;5013599;28;20561;-42
2023/12/19 00:08:03;;;;;;;47.03;35.23;;;;;;;;;;5013151;28;20487;-40
2023/12/19 00:10:31;;;;;;;38.60;32.60;;;;;;;;;;5013873;28;20457;-41
2023/12/19 00:12:59;;;;;;;37.80;32.20;;;;;;;;;;5013382;28;20468;-40
2023/12/19 00:15:27;;;;;;;33.63;30.13;;;;;;;;;;5013591;28;20441;-40
2023/12/19 00:17:54;;;;;;;34.20;30.40;;;;;;;;;;5013191;28;20445;-41
2023/12/19 00:20:22;;;;;;;38.03;29.63;;;;;;;;;;5013376;28;20465;-42
2023/12/19 00:22:49;;;;;;;33.03;29.53;;;;;;;;;;5013446;28;20781;-40
2023/12/19 00:25:18;;;;;;;32.23;28.87;;;;;;;;;;5013413;28;20441;-40
2023/12/19 00:27:46;;;;;;;39.90;30.20;;;;;;;;;;5013043;28;20528;-40
2023/12/19 00:30:14;;;;;;;32.33;28.10;;;;;;;;;;5006670;28;20449;-40
2023/12/19 00:32:41;;;;;;;31.50;27.67;;;;;;;;;;5003612;28;20487;-41
2023/12/19 00:35:09;;;;;;;30.03;27.13;;;;;;;;;;5006142;28;20499;-40
2023/12/19 00:37:37;;;;;;;30.00;26.90;;;;;;;;;;5013171;28;20491;-41
2023/12/19 00:40:05;;;;;;;30.33;27.17;;;;;;;;;;5004585;28;20476;-40
2023/12/19 00:42:34;;;;;;;29.40;26.40;;;;;;;;;;4997660;28;20442;-41
2023/12/19 00:45:02;;;;;;;33.43;28.33;;;;;;;;;;4996646;28;20495;-40
2023/12/19 00:47:29;;;;;;;31.93;28.53;;;;;;;;;;5005975;28;20438;-40
2023/12/19 00:49:57;;;;;;;28.97;25.90;;;;;;;;;;5003408;28;20524;-42
2023/12/19 00:52:27;;;;;;;29.23;25.73;;;;;;;;;;5006628;28;21003;-42
2023/12/19 00:54:55;;;;;;;34.20;27.03;;;;;;;;;;5003407;28;20442;-41
2023/12/19 00:57:22;;;;;;;31.17;27.80;;;;;;;;;;5012540;28;20467;-40
2023/12/19 00:59:51;;;;;;;26.73;24.00;;;;;;;;;;5010630;28;20473;-40
2023/12/19 01:02:19;;;;;;;25.63;23.10;;;;;;;;;;5006931;28;20439;-42
2023/12/19 01:04:47;;;;;;;31.57;24.00;;;;;;;;;;4995990;28;20837;-41
2023/12/19 01:07:15;;;;;;;29.50;23.70;;;;;;;;;;5004109;28;20433;-41
2023/12/19 01:09:42;;;;;;;25.07;22.23;;;;;;;;;;5011623;28;20464;-42
2023/12/19 01:12:10;;;;;;;24.07;21.60;;;;;;;;;;5005236;28;20476;-40
2023/12/19 01:14:37;;;;;;;26.20;22.90;;;;;;;;;;5012561;28;20459;-40
2023/12/19 01:17:06;;;;;;;26.60;22.90;;;;;;;;;;5008794;28;20532;-41
2023/12/19 01:19:34;;;;;;;27.77;21.90;;;;;;;;;;5007710;28;20539;-41
2023/12/19 01:22:02;;;;;;;23.10;21.10;;;;;;;;;;5045388;22;20497;-39
2023/12/19 01:24:30;;;;;;;22.83;20.53;;;;;;;;;;5022791;28;20444;-39
2023/12/19 01:26:58;;;;;;;24.17;21.63;;;;;;;;;;5023022;28;20471;-38
2023/12/19 01:29:25;;;;;;;27.27;20.97;;;;;;;;;;5014597;28;20457;-39
2023/12/19 01:31:53;;;;;;;25.30;19.40;;;;;;;;;;5010218;28;20523;-40
2023/12/19 01:34:22;;;;;;;23.93;20.13;;;;;;;;;;5015395;28;20433;-39
2023/12/19 01:36:50;;;;;;;27.90;20.07;;;;;;;;;;5014510;28;20460;-41
2023/12/19 01:39:24;;;;;;;22.50;18.90;;;;;;;;;;5013782;28;20480;-38
2023/12/19 01:41:52;;;;;;;23.70;18.80;;;;;;;;;;5014199;28;20461;-38
2023/12/19 01:44:20;;;;;;;19.73;17.67;;;;;;;;;;5013871;28;20914;-39
2023/12/19 01:46:48;;;;;;;21.07;19.03;;;;;;;;;;5014005;28;20495;-38
2023/12/19 01:49:15;;;;;;;23.53;19.60;;;;;;;;;;5013025;28;20453;-41
2023/12/19 01:51:44;;;;;;;26.13;20.20;;;;;;;;;;5014325;28;20497;-40
2023/12/19 01:54:12;;;;;;;21.30;19.07;;;;;;;;;;5014142;28;20449;-39
2023/12/19 01:56:40;;;;;;;23.23;20.90;;;;;;;;;;5014184;28;20516;-41
2023/12/19 01:59:09;;;;;;;23.37;20.87;;;;;;;;;;5004989;28;20813;-38
2023/12/19 02:01:37;;;;;;;29.07;20.40;;;;;;;;;;5013958;28;20441;-39
2023/12/19 02:04:05;;;;;;;24.63;22.37;;;;;;;;;;5013879;28;20437;-41
2023/12/19 02:06:34;;;;;;;29.30;20.90;;;;;;;;;;5013856;28;20460;-38
2023/12/19 02:09:03;;;;;;;26.73;20.67;;;;;;;;;;5013317;28;20469;-40
2023/12/19 02:11:31;;;;;;;33.43;20.80;;;;;;;;;;5013750;28;20464;-38
2023/12/19 02:13:58;;;;;;;26.30;19.77;;;;;;;;;;5013983;28;20437;-40
2023/12/19 02:16:26;;;;;;;25.50;20.50;;;;;;;;;;5013371;28;20430;-40
2023/12/19 02:19:01;;;;;;;23.00;20.00;;;;;;;;;;5013430;28;20465;-39
2023/12/19 02:21:30;;;;;;;30.07;19.07;;;;;;;;;;5013678;28;20488;-40
2023/12/19 02:23:59;;;;;;;26.77;19.97;;;;;;;;;;5014402;28;20832;-39
2023/12/19 02:26:27;;;;;;;22.53;19.83;;;;;;;;;;5013057;28;20457;-38
2023/12/19 02:28:55;;;;;;;19.53;17.60;;;;;;;;;;5013446;28;20467;-38
2023/12/19 02:31:22;;;;;;;20.07;18.03;;;;;;;;;;5013932;28;20457;-40
2023/12/19 02:33:50;;;;;;;20.57;18.70;;;;;;;;;;5014190;28;20433;-39
2023/12/19 02:36:18;;;;;;;23.90;17.20;;;;;;;;;;5014205;28;20429;-39
2023/12/19 02:38:46;;;;;;;25.73;19.10;;;;;;;;;;5013425;28;20469;-38
2023/12/19 02:41:15;;;;;;;24.57;19.33;;;;;;;;;;5013989;28;20558;-39
2023/12/19 02:43:42;;;;;;;32.30;18.43;;;;;;;;;;5014371;28;20903;-38
2023/12/19 02:46:21;;;;;;;33.80;18.53;;;;;;;;;;5008160;28;20432;-38
2023/12/19 02:48:49;;;;;;;27.90;19.30;;;;;;;;;;5012975;28;20461;-41
2023/12/19 02:51:18;;;;;;;20.40;17.33;;;;;;;;;;5013426;28;20984;-38
2023/12/19 02:53:45;;;;;;;24.77;21.37;;;;;;;;;;5013789;28;20516;-38
2023/12/19 02:56:14;;;;;;;24.80;19.80;;;;;;;;;;5013570;28;20464;-38
2023/12/19 02:58:42;;;;;;;26.03;18.93;;;;;;;;;;5012743;28;20465;-41
2023/12/19 03:01:10;;;;;;;29.00;19.70;;;;;;;;;;5012943;28;20469;-39
2023/12/19 03:03:40;;;;;;;30.43;19.53;;;;;;;;;;5013967;28;20456;-39
2023/12/19 03:06:08;;;;;;;28.47;18.90;;;;;;;;;;5013013;28;20440;-38
2023/12/19 03:08:36;;;;;;;30.93;20.20;;;;;;;;;;5012783;28;20878;-43
2023/12/19 03:11:04;;;;;;;29.60;19.20;;;;;;;;;;5012859;28;20484;-39
2023/12/19 03:13:33;;;;;;;29.23;20.10;;;;;;;;;;5013088;28;20533;-39
2023/12/19 03:16:01;;;;;;;31.77;19.63;;;;;;;;;;5013830;28;20770;-39
2023/12/19 03:18:28;;;;;;;26.77;19.57;;;;;;;;;;5012287;28;20496;-39
2023/12/19 03:20:57;;;;;;;27.17;20.37;;;;;;;;;;5013252;28;20930;-38
2023/12/19 03:23:25;;;;;;;27.30;21.00;;;;;;;;;;5013325;28;20487;-38
2023/12/19 03:25:53;;;;;;;24.20;19.63;;;;;;;;;;5013363;28;20491;-38
2023/12/19 03:28:20;;;;;;;32.03;21.30;;;;;;;;;;5013817;28;20457;-38
2023/12/19 03:30:50;;;;;;;31.17;21.63;;;;;;;;;;5017144;28;20453;-39
2023/12/19 03:33:18;;;;;;;34.37;23.40;;;;;;;;;;5017969;28;20944;-39
2023/12/19 03:35:45;;;;;;;42.27;28.50;;;;;;;;;;5016903;28;20436;-39
2023/12/19 03:38:13;;;;;;;52.90;31.13;;;;;;;;;;5016545;28;20452;-39
2023/12/19 03:40:41;;;;;;;50.27;29.93;;;;;;;;;;5016440;28;20477;-41
2023/12/19 03:43:09;;;;;;;44.90;32.47;;;;;;;;;;5016938;28;20437;-38
2023/12/19 03:45:36;;;;;;;47.23;31.87;;;;;;;;;;5016860;28;20445;-39
2023/12/19 03:48:06;;;;;;;55.87;34.17;;;;;;;;;;5016081;28;20437;-38
2023/12/19 03:50:34;;;;;;;54.57;34.53;;;;;;;;;;5016648;28;20508;-38
2023/12/19 03:53:02;;;;;;;67.07;35.00;;;;;;;;;;5016443;28;20476;-41
2023/12/19 03:55:29;;;;;;;68.53;36.13;;;;;;;;;;5016623;28;20449;-38
2023/12/19 03:57:57;;;;;;;80.33;37.33;;;;;;;;;;5016267;28;20433;-38
2023/12/19 04:00:25;;;;;;;55.13;32.07;;;;;;;;;;5015888;28;20542;-38
2023/12/19 04:02:52;;;;;;;41.70;28.63;;;;;;;;;;5017265;28;20486;-38
2023/12/19 04:05:21;;;;;;;38.60;28.63;;;;;;;;;;5015915;28;20439;-38
2023/12/19 04:07:49;;;;;;;46.47;29.30;;;;;;;;;;5015847;28;20868;-40
2023/12/19 04:10:16;;;;;;;49.23;29.47;;;;;;;;;;5016462;28;20437;-38
2023/12/19 04:12:44;;;;;;;37.07;27.83;;;;;;;;;;5016014;28;20856;-40
2023/12/19 04:15:12;;;;;;;39.70;29.27;;;;;;;;;;5015706;28;20524;-38
2023/12/19 04:17:40;;;;;;;49.30;31.27;;;;;;;;;;5015606;28;20460;-38
2023/12/19 04:20:08;;;;;;;58.10;31.73;;;;;;;;;;5015211;28;20463;-38
2023/12/19 04:22:37;;;;;;;48.83;30.70;;;;;;;;;;5015581;28;20445;-38
2023/12/19 04:25:05;;;;;;;48.43;30.77;;;;;;;;;;5015151;28;20507;-38
2023/12/19 04:27:32;;;;;;;58.33;32.07;;;;;;;;;;5015595;28;20437;-40
2023/12/19 04:30:00;;;;;;;54.67;32.70;;;;;;;;;;5015422;28;20908;-38
2023/12/19 04:32:28;;;;;;;57.77;31.50;;;;;;;;;;5015049;28;20445;-40
2023/12/19 04:34:55;;;;;;;60.87;31.57;;;;;;;;;;5015036;28;20504;-40
2023/12/19 04:37:23;;;;;;;75.40;34.57;;;;;;;;;;5015846;28;20440;-38
2023/12/19 04:39:52;;;;;;;65.73;34.00;;;;;;;;;;5013951;28;20552;-38
2023/12/19 04:42:19;;;;;;;73.07;34.93;;;;;;;;;;5015431;28;20477;-41
2023/12/19 04:44:46;;;;;;;60.03;34.57;;;;;;;;;;5016391;28;20444;-38
2023/12/19 04:47:14;;;;;;;67.63;33.90;;;;;;;;;;5016239;28;20445;-39
2023/12/19 04:49:41;;;;;;;49.97;30.63;;;;;;;;;;5015271;28;20564;-38
2023/12/19 04:52:09;;;;;;;41.87;28.47;;;;;;;;;;5015692;28;20487;-39
2023/12/19 04:54:37;;;;;;;53.03;29.20;;;;;;;;;;5016999;28;20425;-38
2023/12/19 04:57:06;;;;;;;49.67;32.00;;;;;;;;;;5016997;28;20513;-38
2023/12/19 04:59:34;;;;;;;47.30;31.10;;;;;;;;;;5016301;28;20450;-38
2023/12/19 05:02:02;;;;;;;45.57;29.90;;;;;;;;;;5016646;28;20483;-38
2023/12/19 05:04:30;;;;;;;53.20;30.90;;;;;;;;;;5016823;28;20440;-38
2023/12/19 05:06:57;;;;;;;59.90;31.07;;;;;;;;;;5017016;28;21034;-38
2023/12/19 05:09:25;;;;;;;60.10;32.20;;;;;;;;;;5017233;28;20483;-40
2023/12/19 05:11:53;;;;;;;53.93;28.57;;;;;;;;;;5016642;28;20457;-41
2023/12/19 05:14:22;;;;;;;56.70;31.20;;;;;;;;;;5016778;28;20872;-39
2023/12/19 05:16:49;;;;;;;61.93;31.83;;;;;;;;;;5016582;28;20445;-41
2023/12/19 05:19:17;;;;;;;52.60;30.63;;;;;;;;;;5016292;28;20473;-38
2023/12/19 05:21:45;;;;;;;36.97;28.10;;;;;;;;;;5017114;28;21003;-39
2023/12/19 05:24:12;;;;;;;51.53;29.53;;;;;;;;;;5015919;28;20524;-38
2023/12/19 05:26:40;;;;;;;54.73;29.53;;;;;;;;;;5015726;28;20528;-39
2023/12/19 05:29:07;;;;;;;46.70;29.10;;;;;;;;;;5015852;28;20487;-40
2023/12/19 05:31:36;;;;;;;54.37;29.83;;;;;;;;;;5015012;28;20461;-38
2023/12/19 05:34:04;;;;;;;47.57;29.80;;;;;;;;;;5015695;28;20437;-39
2023/12/19 05:36:34;;;;;;;52.57;29.90;;;;;;;;;;5015146;28;20764;-39
2023/12/19 05:39:07;;;;;;;43.67;29.87;;;;;;;;;;5015354;28;20820;-39
2023/12/19 05:41:35;;;;;;;53.37;31.73;;;;;;;;;;5015722;28;20479;-39
2023/12/19 05:44:02;;;;;;;54.40;32.03;;;;;;;;;;5017588;28;20437;-38
2023/12/19 05:46:30;;;;;;;60.50;31.50;;;;;;;;;;5015444;28;20796;-40
2023/12/19 05:48:59;;;;;;;64.80;32.43;;;;;;;;;;5015992;28;20485;-38
2023/12/19 05:51:27;;;;;;;50.80;30.57;;;;;;;;;;5016767;28;20453;-39
2023/12/19 05:53:56;;;;;;;55.73;30.27;;;;;;;;;;5016061;28;20476;-40
2023/12/19 05:56:24;;;;;;;65.80;32.03;;;;;;;;;;5008167;28;20493;-39
2023/12/19 05:58:52;;;;;;;66.83;32.93;;;;;;;;;;5014678;28;20983;-38
2023/12/19 06:01:19;;;;;;;68.50;32.93;;;;;;;;;;5015170;28;20453;-40
2023/12/19 06:03:47;;;;;;;56.47;32.30;;;;;;;;;;5015286;28;20444;-38
2023/12/19 06:06:17;;;;;;;67.93;33.67;;;;;;;;;;5015454;28;20498;-40
2023/12/19 06:08:44;;;;;;;59.20;32.80;;;;;;;;;;5016484;28;20552;-41
2023/12/19 06:11:12;;;;;;;72.17;32.83;;;;;;;;;;5016255;28;20457;-38
2023/12/19 06:13:40;;;;;;;70.13;33.00;;;;;;;;;;5015134;28;20473;-38
2023/12/19 06:16:08;;;;;;;61.40;31.93;;;;;;;;;;5017487;28;20437;-38
2023/12/19 06:18:35;;;;;;;57.77;32.00;;;;;;;;;;5013962;28;20827;-40
2023/12/19 06:21:03;;;;;;;68.20;33.40;;;;;;;;;;5015036;28;20464;-38
2023/12/19 06:23:32;;;;;;;63.90;32.43;;;;;;;;;;5015527;28;20511;-38
2023/12/19 06:26:00;;;;;;;50.03;31.23;;;;;;;;;;5014730;28;20433;-39
2023/12/19 06:28:28;;;;;;;62.87;30.33;;;;;;;;;;5014288;28;20457;-39
2023/12/19 06:30:55;;;;;;;45.50;27.90;;;;;;;;;;5015499;28;20449;-41
2023/12/19 06:33:23;;;;;;;42.87;26.70;;;;;;;;;;5013515;28;21036;-38
2023/12/19 06:35:52;;;;;;;49.80;27.17;;;;;;;;;;5015205;28;21024;-38
2023/12/19 06:38:20;;;;;;;34.57;24.80;;;;;;;;;;5013623;28;20473;-38
2023/12/19 06:40:49;;;;;;;33.37;26.10;;;;;;;;;;5015001;28;20466;-38
2023/12/19 06:43:19;;;;;;;38.13;25.13;;;;;;;;;;5016391;28;20464;-41
2023/12/19 06:45:46;;;;;;;38.37;25.30;;;;;;;;;;5014260;28;20433;-38
2023/12/19 06:48:14;;;;;;;31.93;25.50;;;;;;;;;;5013047;28;20514;-39
2023/12/19 06:50:41;;;;;;;32.60;23.67;;;;;;;;;;5013725;28;20449;-38
2023/12/19 06:53:09;;;;;;;31.23;24.53;;;;;;;;;;5013928;28;20422;-38
2023/12/19 06:55:37;;;;;;;35.70;23.53;;;;;;;;;;5012232;28;20539;-38
2023/12/19 06:58:06;;;;;;;23.47;21.03;;;;;;;;;;5014421;28;20509;-42
2023/12/19 07:00:34;;;;;;;32.00;22.20;;;;;;;;;;5015207;28;20483;-40
2023/12/19 07:03:01;;;;;;;29.30;22.43;;;;;;;;;;5016842;28;20499;-38
2023/12/19 07:05:29;;;;;;;33.67;22.57;;;;;;;;;;5017446;28;20440;-39
2023/12/19 07:07:57;;;;;;;36.67;24.40;;;;;;;;;;5015148;28;20492;-39
2023/12/19 07:10:24;;;;;;;30.73;22.70;;;;;;;;;;5017660;28;20433;-38
2023/12/19 07:12:52;;;;;;;33.77;23.30;;;;;;;;;;5019929;28;20453;-38
2023/12/19 07:15:21;;;;;;;24.57;21.93;;;;;;;;;;5017494;28;20978;-41
2023/12/19 07:17:49;;;;;;;23.70;21.00;;;;;;;;;;5017056;28;20812;-39
2023/12/19 07:20:17;;;;;;;24.63;21.50;;;;;;;;;;5018377;28;20463;-39
2023/12/19 07:22:44;;;;;;;22.30;20.10;;;;;;;;;;5018436;28;20561;-38
2023/12/19 07:25:13;;;;;;;23.10;21.00;;;;;;;;;;5016854;28;20932;-38
2023/12/19 07:27:40;;;;;;;22.50;20.40;;;;;;;;;;5018008;28;20445;-38
2023/12/19 07:30:12;;;;;;;24.73;22.10;;;;;;;;;;5041846;23;21484;-38
2023/12/19 07:32:41;;;;;;;23.40;20.93;;;;;;;;;;5031637;28;20493;-41
2023/12/19 07:35:09;;;;;;;23.73;21.13;;;;;;;;;;5031215;28;20443;-39
2023/12/19 07:37:37;;;;;;;24.00;21.67;;;;;;;;;;5030755;28;20432;-43
2023/12/19 07:40:10;;;;;;;29.90;23.07;;;;;;;;;;5029123;28;20554;-39
2023/12/19 07:42:39;;;;;;;25.33;22.67;;;;;;;;;;5018750;28;20498;-38
2023/12/19 07:45:07;;;;;;;25.03;21.60;;;;;;;;;;5009949;28;20532;-41
2023/12/19 07:47:35;;;;;;;23.87;21.30;;;;;;;;;;5009670;28;20441;-39
2023/12/19 07:50:04;;;;;;;22.53;20.50;;;;;;;;;;5010604;28;20813;-38
2023/12/19 07:52:33;;;;;;;22.70;20.50;;;;;;;;;;5011304;28;20437;-38
2023/12/19 07:55:01;;;;;;;21.13;19.13;;;;;;;;;;5009290;28;20521;-38
2023/12/19 07:57:29;;;;;;;20.90;19.10;;;;;;;;;;5001276;28;20436;-40
2023/12/19 07:59:57;;;;;;;20.90;18.80;;;;;;;;;;5021259;28;20548;-38
2023/12/19 08:02:24;;;;;;;23.07;20.67;;;;;;;;;;5030422;28;20516;-39
2023/12/19 08:04:52;;;;;;;22.60;20.40;;;;;;;;;;5030022;28;20443;-38
2023/12/19 08:07:21;;;;;;;22.63;20.63;;;;;;;;;;5029637;28;20455;-40
2023/12/19 08:09:49;;;;;;;23.13;20.93;;;;;;;;;;5013952;28;20987;-40
2023/12/19 08:12:16;;;;;;;21.77;19.57;;;;;;;;;;5018636;28;20479;-41
2023/12/19 08:14:44;;;;;;;22.70;20.60;;;;;;;;;;5009372;28;20833;-38
2023/12/19 08:17:12;;;;;;;23.20;20.70;;;;;;;;;;5011465;28;20460;-38
2023/12/19 08:19:40;;;;;;;22.33;20.23;;;;;;;;;;5021637;28;20464;-38
2023/12/19 08:22:08;;;;;;;21.37;19.53;;;;;;;;;;5029462;28;20506;-38
2023/12/19 08:24:37;;;;;;;21.37;19.27;;;;;;;;;;5030040;28;20468;-39
2023/12/19 08:27:05;;;;;;;19.50;17.73;;;;;;;;;;5029443;28;20448;-41
2023/12/19 08:29:32;;;;;;;21.80;19.03;;;;;;;;;;5029408;28;20466;-38
2023/12/19 08:32:00;;;;;;;19.67;17.87;;;;;;;;;;5030628;28;20564;-40
2023/12/19 08:34:27;;;;;;;20.60;18.93;;;;;;;;;;5029953;28;20436;-39
2023/12/19 08:36:55;;;;;;;21.23;19.17;;;;;;;;;;5022631;28;20963;-38
2023/12/19 08:39:23;;;;;;;21.07;19.37;;;;;;;;;;5020502;28;20469;-39
2023/12/19 08:41:52;;;;;;;20.13;18.23;;;;;;;;;;5017485;28;20453;-38
2023/12/19 08:44:19;;;;;;;18.90;17.40;;;;;;;;;;5019222;28;21101;-40
2023/12/19 08:46:47;;;;;;;18.27;16.67;;;;;;;;;;5022432;28;20950;-39
2023/12/19 08:49:14;;;;;;;17.63;16.43;;;;;;;;;;5021750;28;20848;-38
2023/12/19 08:51:45;;;;;;;17.87;16.50;;;;;;;;;;5020235;28;20445;-39
2023/12/19 08:54:13;;;;;;;17.53;16.13;;;;;;;;;;5019327;28;21166;-40
2023/12/19 08:56:42;;;;;;;16.43;15.23;;;;;;;;;;5027344;28;20437;-39
2023/12/19 08:59:11;;;;;;;16.43;15.23;;;;;;;;;;5027149;28;21002;-42
2023/12/19 09:01:41;;;;;;;16.90;15.90;;;;;;;;;;5030396;28;20460;-38
2023/12/19 09:04:08;;;;;;;16.13;15.10;;;;;;;;;;5022232;28;20469;-38
2023/12/19 09:06:36;;;;;;;17.13;15.90;;;;;;;;;;5030112;28;20443;-39
2023/12/19 09:09:04;;;;;;;16.30;15.10;;;;;;;;;;5021812;28;20500;-38
2023/12/19 09:11:33;;;;;;;17.50;15.87;;;;;;;;;;5012221;28;20463;-40
2023/12/19 09:14:01;;;;;;;16.17;15.13;;;;;;;;;;5030610;28;20452;-38
2023/12/19 09:16:30;;;;;;;16.07;14.90;;;;;;;;;;5020535;28;21006;-38
2023/12/19 09:18:57;;;;;;;16.40;15.30;;;;;;;;;;5029754;28;20468;-39
2023/12/19 09:21:26;;;;;;;17.40;16.30;;;;;;;;;;5009435;28;20453;-38
2023/12/19 09:23:53;;;;;;;17.70;16.47;;;;;;;;;;5024645;28;21052;-38
2023/12/19 09:26:21;;;;;;;17.20;15.93;;;;;;;;;;5021029;28;20441;-38
2023/12/19 09:28:48;;;;;;;18.50;17.10;;;;;;;;;;5029846;28;20463;-38
2023/12/19 09:31:18;;;;;;;18.03;16.63;;;;;;;;;;5013744;28;20888;-39
2023/12/19 09:33:48;;;;;;;17.47;16.27;;;;;;;;;;5021467;28;20543;-38
2023/12/19 09:36:21;;;;;;;17.13;15.93;;;;;;;;;;5021254;28;20466;-39
2023/12/19 09:38:48;;;;;;;16.43;15.23;;;;;;;;;;5024567;28;20495;-40
2023/12/19 09:41:16;;;;;;;15.93;14.83;;;;;;;;;;5029267;28;20867;-39
2023/12/19 09:43:43;;;;;;;16.50;15.00;;;;;;;;;;5029952;28;20646;-38
2023/12/19 09:46:11;;;;;;;16.53;15.33;;;;;;;;;;5029947;28;20429;-38
2023/12/19 09:48:42;;;;;;;16.60;15.37;;;;;;;;;;5029177;28;20514;-38
2023/12/19 09:51:17;;;;;;;16.10;14.73;;;;;;;;;;5030349;28;21007;-40
2023/12/19 09:53:47;;;;;;;16.03;14.90;;;;;;;;;;5028962;28;20467;-39
2023/12/19 09:56:15;;;;;;;16.20;15.10;;;;;;;;;;5029515;28;20436;-39
2023/12/19 09:58:45;;;;;;;16.63;15.40;;;;;;;;;;5029214;28;20456;-38
2023/12/19 10:01:13;;;;;;;15.60;14.57;;;;;;;;;;5029887;28;20500;-41
2023/12/19 10:03:42;;;;;;;15.90;14.73;;;;;;;;;;5029005;28;20478;-40
2023/12/19 10:06:10;;;;;;;16.80;15.60;;;;;;;;;;5029670;28;20440;-40
2023/12/19 10:08:40;;;;;;;16.80;15.80;;;;;;;;;;5021241;28;20468;-40
2023/12/19 10:11:08;;;;;;;16.53;15.30;;;;;;;;;;5029124;28;20451;-39
2023/12/19 10:13:37;;;;;;;16.30;15.00;;;;;;;;;;5029923;28;20436;-40
2023/12/19 10:16:06;;;;;;;15.33;14.37;;;;;;;;;;5028729;28;20952;-39
2023/12/19 10:18:55;;;;;;;16.53;15.03;;;;;;;;;;5023259;28;20467;-38
2023/12/19 10:21:24;;;;;;;16.70;15.30;;;;;;;;;;5029562;28;20460;-38
2023/12/19 10:23:54;;;;;;;15.90;14.57;;;;;;;;;;5028978;28;21250;-38
2023/12/19 10:26:28;;;;;;;16.00;15.07;;;;;;;;;;5028495;28;20788;-38
2023/12/19 10:28:56;;;;;;;15.73;14.73;;;;;;;;;;5028915;28;20522;-39
2023/12/19 10:31:24;;;;;;;15.27;14.27;;;;;;;;;;5028771;28;20495;-41
2023/12/19 10:33:54;;;;;;;13.20;12.50;;;;;;;;;;5028059;28;20436;-40
2023/12/19 10:36:23;;;;;;;14.07;13.10;;;;;;;;;;5029494;28;20463;-40
2023/12/19 10:38:51;;;;;;;15.50;14.40;;;;;;;;;;5031118;28;20530;-40
2023/12/19 10:41:22;;;;;;;15.23;13.90;;;;;;;;;;5033046;28;20453;-40
2023/12/19 10:43:50;;;;;;;15.17;14.17;;;;;;;;;;5033014;28;20432;-38
2023/12/19 10:46:19;;;;;;;14.63;13.43;;;;;;;;;;5032855;28;20811;-41
2023/12/19 10:48:47;;;;;;;13.93;13.10;;;;;;;;;;5032940;28;20541;-43
2023/12/19 10:51:16;;;;;;;14.80;13.87;;;;;;;;;;5032335;28;20825;-39
2023/12/19 10:53:49;;;;;;;13.53;12.80;;;;;;;;;;5033362;28;20502;-38
2023/12/19 10:56:22;;;;;;;13.07;12.20;;;;;;;;;;5032754;28;20997;-40
2023/12/19 10:58:53;;;;;;;14.23;12.90;;;;;;;;;;5033208;28;20518;-39
2023/12/19 11:01:23;;;;;;;13.20;12.50;;;;;;;;;;5033409;28;20538;-40
2023/12/19 11:03:54;;;;;;;13.20;12.20;;;;;;;;;;5032768;28;20446;-40
2023/12/19 11:06:23;;;;;;;13.70;12.90;;;;;;;;;;5033476;28;20797;-40
2023/12/19 11:08:52;;;;;;;13.07;12.47;;;;;;;;;;5032274;28;20835;-38
2023/12/19 11:11:23;;;;;;;14.90;14.10;;;;;;;;;;5032328;28;20451;-38
2023/12/19 11:13:54;;;;;;;14.20;13.30;;;;;;;;;;5033154;28;20474;-39
2023/12/19 11:16:23;;;;;;;14.80;14.00;;;;;;;;;;5032642;28;20914;-38
2023/12/19 11:18:52;;;;;;;14.83;14.13;;;;;;;;;;5031592;28;20487;-40
2023/12/19 11:21:23;;;;;;;14.93;14.03;;;;;;;;;;5032334;28;20456;-40
2023/12/19 11:23:54;;;;;;;15.93;14.93;;;;;;;;;;5031344;28;20436;-38
2023/12/19 11:26:24;;;;;;;14.60;14.00;;;;;;;;;;5033450;28;20428;-38
2023/12/19 11:28:53;;;;;;;15.30;14.50;;;;;;;;;;5032122;28;20494;-38
2023/12/19 11:31:30;;;;;;;14.97;14.17;;;;;;;;;;5031925;28;20547;-41
2023/12/19 11:34:00;;;;;;;15.60;14.50;;;;;;;;;;5032197;28;20493;-38
2023/12/19 11:36:28;;;;;;;13.50;12.90;;;;;;;;;;5032153;28;20441;-39
2023/12/19 11:39:23;;;;;;;13.20;12.50;;;;;;;;;;5031588;28;20831;-38
2023/12/19 11:41:51;;;;;;;13.00;12.30;;;;;;;;;;5008336;28;20995;-41
2023/12/19 11:44:33;;;;;;;12.87;12.27;;;;;;;;;;5031177;28;20455;-39
2023/12/19 11:47:19;;;;;;;12.93;12.27;;;;;;;;;;5032417;28;20519;-42
2023/12/19 11:49:48;;;;;;;12.33;11.63;;;;;;;;;;5028541;28;20463;-40
2023/12/19 11:52:42;;;;;;;12.70;12.10;;;;;;;;;;5032136;28;20954;-41
2023/12/19 11:55:22;;;;;;;13.97;13.13;;;;;;;;;;5017553;28;20539;-41
2023/12/19 11:57:50;;;;;;;12.80;12.20;;;;;;;;;;5031133;28;20535;-40
2023/12/19 12:00:29;;;;;;;13.30;12.50;;;;;;;;;;5032659;28;20899;-39
2023/12/19 12:02:56;;;;;;;13.57;12.77;;;;;;;;;;5031899;28;20498;-39
2023/12/19 12:05:25;;;;;;;13.60;12.73;;;;;;;;;;5031464;28;20817;-39
2023/12/19 12:07:54;;;;;;;13.83;13.03;;;;;;;;;;5030407;28;20494;-38
2023/12/19 12:10:23;;;;;;;13.63;12.83;;;;;;;;;;5031650;28;20547;-41
2023/12/19 12:12:51;;;;;;;14.27;13.47;;;;;;;;;;5031350;28;20428;-39
2023/12/19 12:15:21;;;;;;;13.33;12.67;;;;;;;;;;5030935;28;20432;-40
2023/12/19 12:17:48;;;;;;;13.67;12.87;;;;;;;;;;5031221;28;20444;-40
2023/12/19 12:20:23;;;;;;;13.87;13.07;;;;;;;;;;5027480;28;20519;-38
2023/12/19 12:22:53;;;;;;;13.87;13.07;;;;;;;;;;5023851;28;20527;-38
2023/12/19 12:25:22;;;;;;;14.33;13.60;;;;;;;;;;5031598;28;20546;-38
2023/12/19 12:28:05;;;;;;;13.50;12.87;;;;;;;;;;5030728;28;20432;-41
2023/12/19 12:30:33;;;;;;;13.37;12.63;;;;;;;;;;5031209;28;20468;-39
2023/12/19 12:33:02;;;;;;;13.80;13.10;;;;;;;;;;5029298;28;20424;-38
2023/12/19 12:35:35;;;;;;;13.70;13.00;;;;;;;;;;5029641;28;20930;-41
2023/12/19 12:38:06;;;;;;;13.03;12.43;;;;;;;;;;5029572;28;20524;-39
2023/12/19 12:40:33;;;;;;;14.20;13.00;;;;;;;;;;5030302;28;20551;-39
2023/12/19 12:43:19;;;;;;;13.10;12.50;;;;;;;;;;5030215;28;20447;-40
2023/12/19 12:45:47;;;;;;;13.90;13.20;;;;;;;;;;5029509;28;20479;-38
2023/12/19 12:48:15;;;;;;;15.10;14.30;;;;;;;;;;5028318;28;20456;-40
2023/12/19 12:50:42;;;;;;;15.13;14.33;;;;;;;;;;5029151;28;20460;-40
2023/12/19 12:53:14;;;;;;;14.10;13.40;;;;;;;;;;5029533;28;20797;-39
2023/12/19 12:55:41;;;;;;;15.77;14.57;;;;;;;;;;5029247;28;20464;-39
2023/12/19 12:58:09;;;;;;;15.03;14.13;;;;;;;;;;5028867;28;20471;-43
2023/12/19 13:00:37;;;;;;;13.43;12.63;;;;;;;;;;5028022;28;21002;-40
2023/12/19 13:03:07;;;;;;;14.33;13.40;;;;;;;;;;5030018;28;20432;-38
2023/12/19 13:05:34;;;;;;;14.43;13.63;;;;;;;;;;5029784;28;20911;-39
2023/12/19 13:08:02;;;;;;;15.00;14.10;;;;;;;;;;5028020;28;20455;-38
2023/12/19 13:10:31;;;;;;;13.20;12.57;;;;;;;;;;5029467;28;20456;-41
2023/12/19 13:12:59;;;;;;;14.33;13.47;;;;;;;;;;5028964;28;20466;-41
2023/12/19 13:15:26;;;;;;;13.83;13.10;;;;;;;;;;5029130;28;20436;-40
2023/12/19 13:17:54;;;;;;;14.13;13.43;;;;;;;;;;5028487;28;20984;-43
2023/12/19 13:20:22;;;;;;;13.73;13.03;;;;;;;;;;5028648;28;20641;-39
2023/12/19 13:22:50;;;;;;;13.93;13.33;;;;;;;;;;5028725;28;20490;-39
2023/12/19 13:25:18;;;;;;;13.60;13.00;;;;;;;;;;5028919;28;21043;-38
2023/12/19 13:27:46;;;;;;;14.20;13.33;;;;;;;;;;5028151;28;20943;-42
2023/12/19 13:30:14;;;;;;;13.33;12.63;;;;;;;;;;5028328;28;20812;-38
2023/12/19 13:32:43;;;;;;;14.37;13.67;;;;;;;;;;5028928;28;20970;-38
2023/12/19 13:35:11;;;;;;;13.67;13.00;;;;;;;;;;5028886;28;20456;-40
2023/12/19 13:37:39;;;;;;;13.80;13.20;;;;;;;;;;5029450;28;20432;-41
2023/12/19 13:40:09;;;;;;;14.40;13.60;;;;;;;;;;5027845;28;20463;-38
2023/12/19 13:42:39;;;;;;;14.80;14.10;;;;;;;;;;5028179;28;21043;-40
2023/12/19 13:45:10;;;;;;;15.33;14.53;;;;;;;;;;5028875;28;20443;-39
2023/12/19 13:47:38;;;;;;;15.63;14.53;;;;;;;;;;5027834;28;20906;-40
2023/12/19 13:50:06;;;;;;;16.60;15.40;;;;;;;;;;5027945;28;20513;-38
2023/12/19 13:52:37;;;;;;;16.73;15.63;;;;;;;;;;5028859;28;20452;-38
2023/12/19 13:55:04;;;;;;;15.63;14.80;;;;;;;;;;5028213;28;20436;-42
2023/12/19 13:57:32;;;;;;;16.93;15.93;;;;;;;;;;5027949;28;20468;-40
2023/12/19 14:00:00;;;;;;;17.60;16.50;;;;;;;;;;5027651;28;20982;-40
2023/12/19 14:02:29;;;;;;;17.50;16.23;;;;;;;;;;5027654;28;20788;-39
2023/12/19 14:04:56;;;;;;;16.63;15.43;;;;;;;;;;5029066;28;20429;-40
2023/12/19 14:07:24;;;;;;;17.13;15.93;;;;;;;;;;5029018;28;20468;-40
2023/12/19 14:09:51;;;;;;;17.40;15.93;;;;;;;;;;5026746;28;20487;-39
2023/12/19 14:12:19;;;;;;;17.67;16.37;;;;;;;;;;5027770;28;20450;-41
2023/12/19 14:14:47;;;;;;;17.37;16.27;;;;;;;;;;5029892;28;20443;-39
2023/12/19 14:17:14;;;;;;;18.17;16.70;;;;;;;;;;5027899;28;20457;-39
2023/12/19 14:19:43;;;;;;;16.83;15.53;;;;;;;;;;5028017;28;20460;-41
2023/12/19 14:22:11;;;;;;;17.13;16.03;;;;;;;;;;5026165;28;20941;-41
2023/12/19 14:24:39;;;;;;;18.43;17.10;;;;;;;;;;5027804;28;20439;-40